sensor_id;sensor_type;location;lat;lon;timestamp;pressure;altitude;pressure_sealevel;temperature;humidity
50867;BME280;36839;51.946;21.002;2022-09-21T00:02:15;100264.28;;;8.49;100.00
50867;BME280;36839;51.946;21.002;2022-09-21T00:04:41;100270.09;;;8.52;100.00
50867;BME280;36839;51.946;21.002;2022-09-21T00:07:11;100264.65;;;8.55;100.00
50867;BME280;36839;51.946;21.002;2022-09-21T00:09:37;100261.09;;;8.57;100.00
50867;BME280;36839;51.946;21.002;2022-09-21T00:12:05;100269.39;;;8.62;100.00
50867;BME280;36839;51.946;21.002;2022-09-21T00:14:32;100265.32;;;8.65;100.00
50867;BME280;36839;51.946;21.002;2022-09-21T00:17:00;100265.32;;;8.65;100.00
50867;BME280;36839;51.946;21.002;2022-09-21T00:19:31;100261.84;;;8.72;100.00
50867;BME280;36839;51.946;21.002;2022-09-21T00:22:02;100261.84;;;8.72;100.00
50867;BME280;36839;51.946;21.002;2022-09-21T00:24:30;100263.28;;;8.79;100.00
50867;BME280;36839;51.946;21.002;2022-09-21T00:26:58;100273.52;;;8.81;100.00
50867;BME280;36839;51.946;21.002;2022-09-21T00:29:25;100273.52;;;8.81;100.00
50867;BME280;36839;51.946;21.002;2022-09-21T00:31:54;100268.88;;;8.87;100.00
50867;BME280;36839;51.946;21.002;2022-09-21T00:34:23;100264.75;;;8.87;100.00
50867;BME280;36839;51.946;21.002;2022-09-21T00:36:50;100266.14;;;8.90;100.00
50867;BME280;36839;51.946;21.002;2022-09-21T00:39:19;100266.14;;;8.90;100.00
50867;BME280;36839;51.946;21.002;2022-09-21T00:41:45;100264.82;;;8.92;100.00
50867;BME280;36839;51.946;21.002;2022-09-21T00:44:22;100265.13;;;8.96;100.00
50867;BME280;36839;51.946;21.002;2022-09-21T00:46:52;100270.66;;;8.98;100.00
50867;BME280;36839;51.946;21.002;2022-09-21T00:49:22;100268.73;;;8.99;100.00
50867;BME280;36839;51.946;21.002;2022-09-21T00:51:50;100272.91;;;9.01;100.00
50867;BME280;36839;51.946;21.002;2022-09-21T00:54:29;100268.78;;;9.01;100.00
50867;BME280;36839;51.946;21.002;2022-09-21T00:56:58;100270.72;;;9.03;100.00
50867;BME280;36839;51.946;21.002;2022-09-21T00:59:29;100264.67;;;9.04;100.00
50867;BME280;36839;51.946;21.002;2022-09-21T01:01:59;100264.67;;;9.04;100.00
50867;BME280;36839;51.946;21.002;2022-09-21T01:04:33;100264.69;;;9.06;100.00
50867;BME280;36839;51.946;21.002;2022-09-21T01:07:05;100264.69;;;9.06;100.00
50867;BME280;36839;51.946;21.002;2022-09-21T01:09:34;100265.25;;;9.08;100.00
50867;BME280;36839;51.946;21.002;2022-09-21T01:12:28;100265.25;;;9.08;100.00
50867;BME280;36839;51.946;21.002;2022-09-21T01:15:10;100264.70;;;9.09;100.00
50867;BME280;36839;51.946;21.002;2022-09-21T01:20:33;100263.09;;;9.10;100.00
50867;BME280;36839;51.946;21.002;2022-09-21T01:31:37;100272.75;;;9.13;100.00
50867;BME280;36839;51.946;21.002;2022-09-21T01:34:09;100279.92;;;9.14;100.00
50867;BME280;36839;51.946;21.002;2022-09-21T01:36:37;100284.06;;;9.14;100.00
50867;BME280;36839;51.946;21.002;2022-09-21T01:39:10;100286.55;;;9.15;100.00
50867;BME280;36839;51.946;21.002;2022-09-21T01:41:40;100281.87;;;9.16;100.00
50867;BME280;36839;51.946;21.002;2022-09-21T01:44:11;100287.38;;;9.16;100.00
50867;BME280;36839;51.946;21.002;2022-09-21T01:46:37;100292.61;;;9.15;100.00
50867;BME280;36839;51.946;21.002;2022-09-21T01:49:09;100292.61;;;9.15;100.00
50867;BME280;36839;51.946;21.002;2022-09-21T01:51:38;100296.74;;;9.15;100.00
50867;BME280;36839;51.946;21.002;2022-09-21T01:54:17;100296.74;;;9.15;100.00
50867;BME280;36839;51.946;21.002;2022-09-21T01:57:11;100298.93;;;9.13;100.00
50867;BME280;36839;51.946;21.002;2022-09-21T02:02:21;100289.02;;;9.14;100.00
50867;BME280;36839;51.946;21.002;2022-09-21T02:04:51;100293.97;;;9.12;100.00
50867;BME280;36839;51.946;21.002;2022-09-21T02:07:22;100287.56;;;9.07;100.00
50867;BME280;36839;51.946;21.002;2022-09-21T02:09:50;100287.56;;;9.07;100.00
50867;BME280;36839;51.946;21.002;2022-09-21T02:12:21;100289.00;;;9.12;100.00
50867;BME280;36839;51.946;21.002;2022-09-21T02:14:53;100291.20;;;9.10;100.00
50867;BME280;36839;51.946;21.002;2022-09-21T02:17:50;100293.09;;;9.09;100.00
50867;BME280;36839;51.946;21.002;2022-09-21T02:20:22;100293.89;;;9.07;100.00
50867;BME280;36839;51.946;21.002;2022-09-21T02:25:29;100301.86;;;9.04;100.00
50867;BME280;36839;51.946;21.002;2022-09-21T02:28:06;100304.05;;;9.02;100.00
50867;BME280;36839;51.946;21.002;2022-09-21T02:30:34;100311.50;;;9.04;100.00
50867;BME280;36839;51.946;21.002;2022-09-21T02:35:57;100305.42;;;9.02;100.00
50867;BME280;36839;51.946;21.002;2022-09-21T02:38:36;100306.80;;;9.02;100.00
50867;BME280;36839;51.946;21.002;2022-09-21T02:41:24;100306.80;;;9.02;100.00
50867;BME280;36839;51.946;21.002;2022-09-21T02:44:01;100306.45;;;8.96;100.00
50867;BME280;36839;51.946;21.002;2022-09-21T02:49:24;100308.66;;;8.96;100.00
50867;BME280;36839;51.946;21.002;2022-09-21T02:51:55;100313.35;;;8.98;100.00
50867;BME280;36839;51.946;21.002;2022-09-21T02:54:25;100315.52;;;8.94;100.00
50867;BME280;36839;51.946;21.002;2022-09-21T02:56:58;100322.38;;;8.91;100.00
50867;BME280;36839;51.946;21.002;2022-09-21T02:59:26;100326.82;;;8.95;100.00
50867;BME280;36839;51.946;21.002;2022-09-21T03:01:57;100326.82;;;8.95;100.00
50867;BME280;36839;51.946;21.002;2022-09-21T03:04:24;100321.29;;;8.92;100.00
50867;BME280;36839;51.946;21.002;2022-09-21T03:06:52;100319.91;;;8.92;100.00
50867;BME280;36839;51.946;21.002;2022-09-21T03:09:20;100319.91;;;8.92;100.00
50867;BME280;36839;51.946;21.002;2022-09-21T03:11:51;100322.41;;;8.94;100.00
50867;BME280;36839;51.946;21.002;2022-09-21T03:14:21;100322.89;;;8.91;100.00
50867;BME280;36839;51.946;21.002;2022-09-21T03:16:49;100322.89;;;8.91;100.00
50867;BME280;36839;51.946;21.002;2022-09-21T03:19:17;100327.84;;;8.88;100.00
50867;BME280;36839;51.946;21.002;2022-09-21T03:21:43;100327.84;;;8.88;100.00
50867;BME280;36839;51.946;21.002;2022-09-21T03:24:11;100332.02;;;8.91;100.00
50867;BME280;36839;51.946;21.002;2022-09-21T03:26:38;100332.02;;;8.91;100.00
50867;BME280;36839;51.946;21.002;2022-09-21T03:29:04;100332.59;;;8.93;100.00
50867;BME280;36839;51.946;21.002;2022-09-21T03:31:31;100328.22;;;8.97;100.00
50867;BME280;36839;51.946;21.002;2022-09-21T03:34:03;100332.61;;;8.96;100.00
50867;BME280;36839;51.946;21.002;2022-09-21T03:36:30;100333.42;;;8.94;100.00
50867;BME280;36839;51.946;21.002;2022-09-21T03:38:57;100333.62;;;8.90;100.00
50867;BME280;36839;51.946;21.002;2022-09-21T03:41:25;100333.14;;;8.93;100.00
50867;BME280;36839;51.946;21.002;2022-09-21T03:43:52;100334.52;;;8.93;100.00
50867;BME280;36839;51.946;21.002;2022-09-21T03:46:23;100343.61;;;8.93;100.00
50867;BME280;36839;51.946;21.002;2022-09-21T03:48:52;100337.84;;;8.95;100.00
50867;BME280;36839;51.946;21.002;2022-09-21T03:51:22;100337.84;;;8.95;100.00
50867;BME280;36839;51.946;21.002;2022-09-21T03:53:48;100335.63;;;8.94;100.00
50867;BME280;36839;51.946;21.002;2022-09-21T03:56:16;100338.10;;;8.93;100.00
50867;BME280;36839;51.946;21.002;2022-09-21T03:58:43;100344.70;;;8.92;100.00
50867;BME280;36839;51.946;21.002;2022-09-21T04:01:09;100342.25;;;8.96;100.00
50867;BME280;36839;51.946;21.002;2022-09-21T04:03:37;100342.25;;;8.96;100.00
50867;BME280;36839;51.946;21.002;2022-09-21T04:06:11;100350.23;;;8.95;100.00
50867;BME280;36839;51.946;21.002;2022-09-21T04:08:40;100357.93;;;8.93;100.00
50867;BME280;36839;51.946;21.002;2022-09-21T04:11:17;100353.45;;;8.89;100.00
50867;BME280;36839;51.946;21.002;2022-09-21T04:13:39;100353.45;;;8.89;100.00
50867;BME280;36839;51.946;21.002;2022-09-21T04:16:12;100359.59;;;8.94;100.00
50867;BME280;36839;51.946;21.002;2022-09-21T04:18:42;100355.74;;;8.95;100.00
50867;BME280;36839;51.946;21.002;2022-09-21T04:21:10;100361.53;;;8.96;100.00
50867;BME280;36839;51.946;21.002;2022-09-21T04:23:38;100359.05;;;8.94;100.00
50867;BME280;36839;51.946;21.002;2022-09-21T04:26:06;100361.23;;;8.92;100.00
50867;BME280;36839;51.946;21.002;2022-09-21T04:28:34;100361.23;;;8.92;100.00
50867;BME280;36839;51.946;21.002;2022-09-21T04:31:05;100365.67;;;8.96;100.00
50867;BME280;36839;51.946;21.002;2022-09-21T04:33:35;100369.00;;;8.98;100.00
50867;BME280;36839;51.946;21.002;2022-09-21T04:36:01;100364.86;;;8.98;100.00
50867;BME280;36839;51.946;21.002;2022-09-21T04:38:30;100374.24;;;8.99;100.00
50867;BME280;36839;51.946;21.002;2022-09-21T04:40:57;100368.45;;;8.98;100.00
50867;BME280;36839;51.946;21.002;2022-09-21T04:43:27;100368.45;;;8.98;100.00
50867;BME280;36839;51.946;21.002;2022-09-21T04:45:54;100373.41;;;8.99;100.00
50867;BME280;36839;51.946;21.002;2022-09-21T04:48:20;100385.52;;;8.98;100.00
50867;BME280;36839;51.946;21.002;2022-09-21T04:50:50;100378.92;;;8.99;100.00
50867;BME280;36839;51.946;21.002;2022-09-21T04:53:20;100378.92;;;8.99;100.00
50867;BME280;36839;51.946;21.002;2022-09-21T04:55:47;100375.08;;;9.00;100.00
50867;BME280;36839;51.946;21.002;2022-09-21T04:58:18;100380.38;;;9.04;100.00
50867;BME280;36839;51.946;21.002;2022-09-21T05:00:56;100390.05;;;9.06;100.00
50867;BME280;36839;51.946;21.002;2022-09-21T05:03:25;100390.05;;;9.06;100.00
50867;BME280;36839;51.946;21.002;2022-09-21T05:05:56;100384.52;;;9.04;100.00
50867;BME280;36839;51.946;21.002;2022-09-21T05:08:25;100395.53;;;9.04;100.00
50867;BME280;36839;51.946;21.002;2022-09-21T05:11:13;100393.42;;;9.11;100.00
50867;BME280;36839;51.946;21.002;2022-09-21T05:13:41;100396.48;;;9.14;100.00
50867;BME280;36839;51.946;21.002;2022-09-21T05:16:11;100388.51;;;9.15;100.00
50867;BME280;36839;51.946;21.002;2022-09-21T05:18:43;100388.51;;;9.15;100.00
50867;BME280;36839;51.946;21.002;2022-09-21T05:21:13;100404.00;;;9.19;100.00
50867;BME280;36839;51.946;21.002;2022-09-21T05:23:42;100396.25;;;9.19;100.00
50867;BME280;36839;51.946;21.002;2022-09-21T05:26:10;100401.55;;;9.23;100.00
50867;BME280;36839;51.946;21.002;2022-09-21T05:28:37;100401.55;;;9.23;100.00
50867;BME280;36839;51.946;21.002;2022-09-21T05:31:38;100408.18;;;9.24;100.00
50867;BME280;36839;51.946;21.002;2022-09-21T05:40:11;100409.13;;;9.35;100.00
50867;BME280;36839;51.946;21.002;2022-09-21T05:42:38;100414.98;;;9.38;100.00
50867;BME280;36839;51.946;21.002;2022-09-21T05:45:06;100411.44;;;9.43;100.00
50867;BME280;36839;51.946;21.002;2022-09-21T05:47:39;100413.67;;;9.46;100.00
50867;BME280;36839;51.946;21.002;2022-09-21T05:50:16;100420.56;;;9.46;100.00
50867;BME280;36839;51.946;21.002;2022-09-21T05:55:54;100423.39;;;9.51;100.00
50867;BME280;36839;51.946;21.002;2022-09-21T05:58:41;100425.31;;;9.51;100.00
50867;BME280;36839;51.946;21.002;2022-09-21T06:03:45;100427.28;;;9.55;100.00
50867;BME280;36839;51.946;21.002;2022-09-21T06:06:16;100425.91;;;9.55;100.00
50867;BME280;36839;51.946;21.002;2022-09-21T06:08:43;100425.91;;;9.55;100.00
50867;BME280;36839;51.946;21.002;2022-09-21T06:11:13;100433.08;;;9.56;100.00
50867;BME280;36839;51.946;21.002;2022-09-21T06:13:41;100434.23;;;9.58;100.00
50867;BME280;36839;51.946;21.002;2022-09-21T06:16:09;100438.41;;;9.63;100.00
50867;BME280;36839;51.946;21.002;2022-09-21T06:18:44;100435.65;;;9.63;100.00
50867;BME280;36839;51.946;21.002;2022-09-21T06:21:11;100435.65;;;9.63;100.00
50867;BME280;36839;51.946;21.002;2022-09-21T06:23:40;100446.48;;;9.69;100.00
50867;BME280;36839;51.946;21.002;2022-09-21T06:26:06;100441.61;;;9.77;100.00
50867;BME280;36839;51.946;21.002;2022-09-21T06:28:34;100438.69;;;9.88;100.00
50867;BME280;36839;51.946;21.002;2022-09-21T06:31:03;100444.00;;;9.95;100.00
50867;BME280;36839;51.946;21.002;2022-09-21T06:33:34;100444.00;;;9.95;100.00
50867;BME280;36839;51.946;21.002;2022-09-21T06:36:04;100441.44;;;10.15;100.00
50867;BME280;36839;51.946;21.002;2022-09-21T06:38:32;100441.98;;;10.15;100.00
50867;BME280;36839;51.946;21.002;2022-09-21T06:41:02;100437.88;;;10.20;100.00
50867;BME280;36839;51.946;21.002;2022-09-21T06:43:31;100442.06;;;10.22;100.00
50867;BME280;36839;51.946;21.002;2022-09-21T06:46:04;100442.06;;;10.22;100.00
50867;BME280;36839;51.946;21.002;2022-09-21T06:48:34;100453.17;;;10.30;100.00
50867;BME280;36839;51.946;21.002;2022-09-21T06:51:03;100451.28;;;10.33;100.00
50867;BME280;36839;51.946;21.002;2022-09-21T06:53:33;100449.98;;;10.43;100.00
50867;BME280;36839;51.946;21.002;2022-09-21T06:56:05;100453.31;;;10.45;100.00
50867;BME280;36839;51.946;21.002;2022-09-21T06:58:34;100461.33;;;10.47;100.00
50867;BME280;36839;51.946;21.002;2022-09-21T07:01:11;100461.33;;;10.47;100.00
50867;BME280;36839;51.946;21.002;2022-09-21T07:03:41;100456.92;;;10.48;100.00
50867;BME280;36839;51.946;21.002;2022-09-21T07:06:12;100462.42;;;10.46;100.00
50867;BME280;36839;51.946;21.002;2022-09-21T07:08:42;100461.07;;;10.51;100.00
50867;BME280;36839;51.946;21.002;2022-09-21T07:11:11;100461.07;;;10.51;100.00
50867;BME280;36839;51.946;21.002;2022-09-21T07:13:39;100469.76;;;10.65;100.00
50867;BME280;36839;51.946;21.002;2022-09-21T07:16:10;100462.09;;;10.74;100.00
50867;BME280;36839;51.946;21.002;2022-09-21T07:18:39;100473.75;;;10.81;100.00
50867;BME280;36839;51.946;21.002;2022-09-21T07:21:09;100473.75;;;10.81;100.00
50867;BME280;36839;51.946;21.002;2022-09-21T07:23:36;100467.36;;;10.78;100.00
50867;BME280;36839;51.946;21.002;2022-09-21T07:26:12;100467.36;;;10.78;100.00
50867;BME280;36839;51.946;21.002;2022-09-21T07:28:40;100472.04;;;10.75;100.00
50867;BME280;36839;51.946;21.002;2022-09-21T07:31:12;100480.33;;;10.75;100.00
50867;BME280;36839;51.946;21.002;2022-09-21T07:33:41;100478.69;;;10.79;100.00
50867;BME280;36839;51.946;21.002;2022-09-21T07:36:10;100479.58;;;10.87;100.00
50867;BME280;36839;51.946;21.002;2022-09-21T07:38:40;100468.86;;;10.96;100.00
50867;BME280;36839;51.946;21.002;2022-09-21T07:41:10;100478.25;;;10.95;100.00
50867;BME280;36839;51.946;21.002;2022-09-21T07:43:36;100478.88;;;11.07;100.00
50867;BME280;36839;51.946;21.002;2022-09-21T07:46:12;100470.35;;;11.14;100.00
50867;BME280;36839;51.946;21.002;2022-09-21T07:48:43;100481.73;;;11.23;100.00
50867;BME280;36839;51.946;21.002;2022-09-21T07:51:13;100475.42;;;11.32;100.00
50867;BME280;36839;51.946;21.002;2022-09-21T07:53:42;100479.89;;;11.38;100.00
50867;BME280;36839;51.946;21.002;2022-09-21T07:56:13;100479.89;;;11.38;100.00
50867;BME280;36839;51.946;21.002;2022-09-21T07:58:42;100489.34;;;11.53;100.00
50867;BME280;36839;51.946;21.002;2022-09-21T08:01:28;100479.97;;;11.56;100.00
50867;BME280;36839;51.946;21.002;2022-09-21T08:03:56;100487.72;;;11.64;100.00
50867;BME280;36839;51.946;21.002;2022-09-21T08:06:27;100487.72;;;11.64;100.00
50867;BME280;36839;51.946;21.002;2022-09-21T08:09:06;100487.17;;;11.65;100.00
50867;BME280;36839;51.946;21.002;2022-09-21T08:11:34;100483.02;;;11.65;100.00
50867;BME280;36839;51.946;21.002;2022-09-21T08:14:04;100486.92;;;11.71;100.00
50867;BME280;36839;51.946;21.002;2022-09-21T08:16:36;100491.35;;;11.72;100.00
50867;BME280;36839;51.946;21.002;2022-09-21T08:19:05;100498.09;;;11.89;100.00
50867;BME280;36839;51.946;21.002;2022-09-21T08:21:34;100494.26;;;12.11;100.00
50867;BME280;36839;51.946;21.002;2022-09-21T08:24:03;100492.09;;;12.38;100.00
50867;BME280;36839;51.946;21.002;2022-09-21T08:26:31;100505.66;;;12.37;100.00
50867;BME280;36839;51.946;21.002;2022-09-21T08:29:00;100492.09;;;12.38;100.00
50867;BME280;36839;51.946;21.002;2022-09-21T08:31:30;100507.86;;;12.30;99.62
50867;BME280;36839;51.946;21.002;2022-09-21T08:33:58;100507.86;;;12.30;99.62
50867;BME280;36839;51.946;21.002;2022-09-21T08:36:29;100498.17;;;12.25;98.96
50867;BME280;36839;51.946;21.002;2022-09-21T08:38:57;100499.84;;;12.23;97.37
50867;BME280;36839;51.946;21.002;2022-09-21T08:41:41;100504.52;;;12.20;98.51
50867;BME280;36839;51.946;21.002;2022-09-21T08:44:06;100502.05;;;12.24;98.39
50867;BME280;36839;51.946;21.002;2022-09-21T08:46:34;100502.05;;;12.24;98.39
50867;BME280;36839;51.946;21.002;2022-09-21T08:49:16;100504.56;;;12.33;96.13
50867;BME280;36839;51.946;21.002;2022-09-21T08:51:48;100499.87;;;12.72;95.42
50867;BME280;36839;51.946;21.002;2022-09-21T08:55:00;100499.87;;;12.72;95.42
50867;BME280;36839;51.946;21.002;2022-09-21T08:56:49;100504.56;;;12.76;92.57
50867;BME280;36839;51.946;21.002;2022-09-21T08:59:18;100510.66;;;12.91;93.91
50867;BME280;36839;51.946;21.002;2022-09-21T09:01:58;100508.44;;;12.78;91.42
50867;BME280;36839;51.946;21.002;2022-09-21T09:10:32;100508.14;;;13.05;92.64
50867;BME280;36839;51.946;21.002;2022-09-21T09:13:01;100513.94;;;13.16;88.65
50867;BME280;36839;51.946;21.002;2022-09-21T09:18:22;100504.80;;;13.05;88.65
50867;BME280;36839;51.946;21.002;2022-09-21T09:20:57;100509.54;;;12.95;89.87
50867;BME280;36839;51.946;21.002;2022-09-21T09:26:17;100509.25;;;12.96;90.13
50867;BME280;36839;51.946;21.002;2022-09-21T09:29:01;100511.20;;;13.01;93.28
50867;BME280;36839;51.946;21.002;2022-09-21T09:31:31;100516.75;;;12.85;93.99
50867;BME280;36839;51.946;21.002;2022-09-21T09:36:45;100519.55;;;12.70;92.79
50867;BME280;36839;51.946;21.002;2022-09-21T09:39:14;100509.28;;;12.73;94.40
50867;BME280;36839;51.946;21.002;2022-09-21T09:42:05;100520.64;;;12.74;92.53
50867;BME280;36839;51.946;21.002;2022-09-21T09:47:19;100516.48;;;12.90;91.86
50867;BME280;36839;51.946;21.002;2022-09-21T09:50:11;100516.48;;;12.90;91.86
50867;BME280;36839;51.946;21.002;2022-09-21T09:52:42;100510.11;;;12.64;87.72
50867;BME280;36839;51.946;21.002;2022-09-21T09:55:27;100514.55;;;12.54;89.76
50867;BME280;36839;51.946;21.002;2022-09-21T09:57:55;100520.64;;;12.56;89.60
50867;BME280;36839;51.946;21.002;2022-09-21T10:00:24;100514.28;;;12.61;91.02
50867;BME280;36839;51.946;21.002;2022-09-21T10:02:54;100516.20;;;12.94;91.02
50867;BME280;36839;51.946;21.002;2022-09-21T10:05:34;100533.34;;;13.16;88.85
50867;BME280;36839;51.946;21.002;2022-09-21T10:08:02;100533.34;;;13.16;88.85
50867;BME280;36839;51.946;21.002;2022-09-21T10:10:35;100518.13;;;13.08;86.75
50867;BME280;36839;51.946;21.002;2022-09-21T10:13:12;100523.67;;;12.96;85.17
50867;BME280;36839;51.946;21.002;2022-09-21T10:21:18;100519.49;;;13.13;84.56
50867;BME280;36839;51.946;21.002;2022-09-21T10:26:22;100517.86;;;13.20;85.09
50867;BME280;36839;51.946;21.002;2022-09-21T10:29:01;100516.86;;;13.70;88.28
50867;BME280;36839;51.946;21.002;2022-09-21T10:31:30;100512.14;;;13.71;86.07
50867;BME280;36839;51.946;21.002;2022-09-21T10:34:14;100512.14;;;13.71;86.07
50867;BME280;36839;51.946;21.002;2022-09-21T10:36:48;100503.22;;;13.79;83.54
50867;BME280;36839;51.946;21.002;2022-09-21T10:44:24;100518.43;;;13.94;79.69
50867;BME280;36839;51.946;21.002;2022-09-21T10:46:51;100513.12;;;13.98;78.76
50867;BME280;36839;51.946;21.002;2022-09-21T10:49:27;100513.21;;;14.32;81.26
50867;BME280;36839;51.946;21.002;2022-09-21T10:51:56;100505.33;;;14.44;78.15
50867;BME280;36839;51.946;21.002;2022-09-21T10:54:29;100493.13;;;14.77;80.49
50867;BME280;36839;51.946;21.002;2022-09-21T10:57:14;100514.38;;;14.65;79.54
50867;BME280;36839;51.946;21.002;2022-09-21T10:59:39;100510.90;;;14.47;76.86
50867;BME280;36839;51.946;21.002;2022-09-21T11:02:54;100501.22;;;14.37;78.83
50867;BME280;36839;51.946;21.002;2022-09-21T11:04:46;100500.68;;;14.35;79.28
50867;BME280;36839;51.946;21.002;2022-09-21T11:07:18;100504.30;;;14.30;77.76
50867;BME280;36839;51.946;21.002;2022-09-21T11:15:16;100502.37;;;14.72;75.22
50867;BME280;36839;51.946;21.002;2022-09-21T11:20:34;100499.41;;;14.61;74.20
50867;BME280;36839;51.946;21.002;2022-09-21T11:23:12;100489.88;;;14.70;74.34
50867;BME280;36839;51.946;21.002;2022-09-21T11:29:01;100494.10;;;14.94;73.53
50867;BME280;36839;51.946;21.002;2022-09-21T11:31:43;100512.56;;;14.50;74.92
50867;BME280;36839;51.946;21.002;2022-09-21T11:39:57;100518.41;;;13.09;84.51
50867;BME280;36839;51.946;21.002;2022-09-21T11:45:00;100498.73;;;12.85;95.65
50867;BME280;36839;51.946;21.002;2022-09-21T11:50:48;100503.70;;;13.04;100.00
50867;BME280;36839;51.946;21.002;2022-09-21T12:02:02;100489.77;;;14.04;96.92
50867;BME280;36839;51.946;21.002;2022-09-21T12:04:44;100493.78;;;14.27;98.90
50867;BME280;36839;51.946;21.002;2022-09-21T12:07:25;100496.53;;;14.29;93.08
50867;BME280;36839;51.946;21.002;2022-09-21T12:10:14;100488.95;;;14.45;95.26
50867;BME280;36839;51.946;21.002;2022-09-21T12:12:58;100485.03;;;14.49;94.02
50867;BME280;36839;51.946;21.002;2022-09-21T12:15:37;100485.03;;;14.49;94.02
50867;BME280;36839;51.946;21.002;2022-09-21T12:18:11;100490.18;;;14.66;98.33
50867;BME280;36839;51.946;21.002;2022-09-21T12:23:50;100490.72;;;14.31;94.33
50867;BME280;36839;51.946;21.002;2022-09-21T12:26:21;100484.59;;;14.32;93.88
50867;BME280;36839;51.946;21.002;2022-09-21T12:28:59;100477.91;;;14.30;90.66
50867;BME280;36839;51.946;21.002;2022-09-21T12:31:36;100478.28;;;14.18;89.98
50867;BME280;36839;51.946;21.002;2022-09-21T12:34:10;100474.77;;;14.05;84.22
50867;BME280;36839;51.946;21.002;2022-09-21T12:36:49;100478.14;;;13.97;84.89
50867;BME280;36839;51.946;21.002;2022-09-21T12:39:28;100473.69;;;13.98;89.25
50867;BME280;36839;51.946;21.002;2022-09-21T12:42:02;100468.09;;;14.06;87.05
50867;BME280;36839;51.946;21.002;2022-09-21T12:44:38;100467.80;;;14.08;86.29
50867;BME280;36839;51.946;21.002;2022-09-21T12:47:11;100467.80;;;14.08;86.29
50867;BME280;36839;51.946;21.002;2022-09-21T12:49:47;100464.28;;;13.94;89.41
50867;BME280;36839;51.946;21.002;2022-09-21T12:52:27;100464.28;;;13.94;89.41
50867;BME280;36839;51.946;21.002;2022-09-21T12:55:06;100455.86;;;14.07;89.56
50867;BME280;36839;51.946;21.002;2022-09-21T13:00:21;100453.44;;;14.35;87.22
50867;BME280;36839;51.946;21.002;2022-09-21T13:08:16;100458.80;;;14.63;88.76
50867;BME280;36839;51.946;21.002;2022-09-21T13:10:54;100450.79;;;14.56;85.39
50867;BME280;36839;51.946;21.002;2022-09-21T13:13:27;100459.09;;;14.61;86.33
50867;BME280;36839;51.946;21.002;2022-09-21T13:15:56;100463.38;;;14.77;86.07
50867;BME280;36839;51.946;21.002;2022-09-21T13:18:36;100463.38;;;14.77;86.07
50867;BME280;36839;51.946;21.002;2022-09-21T13:21:28;100461.25;;;14.96;83.53
50867;BME280;36839;51.946;21.002;2022-09-21T13:23:59;100468.17;;;15.01;82.16
50867;BME280;36839;51.946;21.002;2022-09-21T13:27:05;100468.17;;;15.01;82.16
50867;BME280;36839;51.946;21.002;2022-09-21T13:31:58;100468.64;;;14.81;78.74
50867;BME280;36839;51.946;21.002;2022-09-21T13:34:40;100468.65;;;14.50;80.62
50867;BME280;36839;51.946;21.002;2022-09-21T13:40:29;100482.42;;;14.21;80.21
50867;BME280;36839;51.946;21.002;2022-09-21T13:47:45;100489.00;;;13.93;81.44
50867;BME280;36839;51.946;21.002;2022-09-21T13:50:27;100487.53;;;13.49;80.33
50867;BME280;36839;51.946;21.002;2022-09-21T13:53:01;100492.83;;;13.35;78.79
50867;BME280;36839;51.946;21.002;2022-09-21T13:55:38;100485.98;;;13.00;80.14
50867;BME280;36839;51.946;21.002;2022-09-21T13:58:17;100485.98;;;13.00;80.14
50867;BME280;36839;51.946;21.002;2022-09-21T14:00:38;100496.53;;;12.65;80.25
50867;BME280;36839;51.946;21.002;2022-09-21T14:03:31;100484.88;;;12.50;81.14
50867;BME280;36839;51.946;21.002;2022-09-21T14:06:07;100492.38;;;12.34;82.67
50867;BME280;36839;51.946;21.002;2022-09-21T14:08:39;100489.03;;;12.27;85.16
50867;BME280;36839;51.946;21.002;2022-09-21T14:11:54;100486.55;;;12.23;87.65
50867;BME280;36839;51.946;21.002;2022-09-21T14:13:43;100486.55;;;12.23;87.65
50867;BME280;36839;51.946;21.002;2022-09-21T14:19:02;100497.03;;;12.11;90.98
50867;BME280;36839;51.946;21.002;2022-09-21T14:21:29;100494.56;;;12.17;91.15
50867;BME280;36839;51.946;21.002;2022-09-21T14:24:15;100493.46;;;12.28;92.35
50867;BME280;36839;51.946;21.002;2022-09-21T14:29:31;100490.14;;;12.26;91.96
50867;BME280;36839;51.946;21.002;2022-09-21T14:32:09;100490.14;;;12.26;91.96
50867;BME280;36839;51.946;21.002;2022-09-21T14:34:37;100487.36;;;12.18;93.75
50867;BME280;36839;51.946;21.002;2022-09-21T14:37:12;100487.10;;;12.22;94.27
50867;BME280;36839;51.946;21.002;2022-09-21T14:39:39;100478.23;;;12.25;94.93
50867;BME280;36839;51.946;21.002;2022-09-21T14:42:17;100480.17;;;12.27;95.15
50867;BME280;36839;51.946;21.002;2022-09-21T14:44:43;100480.73;;;12.35;95.49
50867;BME280;36839;51.946;21.002;2022-09-21T14:55:12;100482.94;;;12.76;94.43
50867;BME280;36839;51.946;21.002;2022-09-21T15:00:43;100484.63;;;12.79;92.53
50867;BME280;36839;51.946;21.002;2022-09-21T15:03:44;100482.66;;;12.85;94.23
50867;BME280;36839;51.946;21.002;2022-09-21T15:06:30;100482.66;;;12.85;94.23
50867;BME280;36839;51.946;21.002;2022-09-21T15:12:18;100474.37;;;12.70;95.72
50867;BME280;36839;51.946;21.002;2022-09-21T15:15:09;100480.45;;;12.67;94.95
50867;BME280;36839;51.946;21.002;2022-09-21T15:17:33;100474.91;;;12.59;94.54
50867;BME280;36839;51.946;21.002;2022-09-21T15:20:13;100481.30;;;12.52;94.99
50867;BME280;36839;51.946;21.002;2022-09-21T15:22:31;100481.30;;;12.52;94.99